createdAt,value
2022-10-13T00:03:40.280Z,92.20
2022-10-13T00:08:41.634Z,95.80
2022-10-13T00:13:39.776Z,86.50
2022-10-13T00:18:39.149Z,92.30
2022-10-13T00:23:38.305Z,98.00
2022-10-13T00:28:37.525Z,78.70
2022-10-13T00:33:37.683Z,78.80
2022-10-13T00:38:34.869Z,78.50
2022-10-13T00:43:35.059Z,76.70
2022-10-13T00:48:34.220Z,62.80
2022-10-13T00:53:33.437Z,60.70
2022-10-13T00:58:31.609Z,54.60
2022-10-13T01:03:32.027Z,54.90
2022-10-13T01:08:34.147Z,46.50
2022-10-13T01:13:29.465Z,46.00
2022-10-13T01:18:29.756Z,41.10
2022-10-13T01:23:30.078Z,42.80
2022-10-13T01:28:28.453Z,44.80
2022-10-13T01:33:27.570Z,35.20
2022-10-13T01:38:26.955Z,35.50
2022-10-13T01:43:26.097Z,33.60
2022-10-13T01:48:26.240Z,30.20
2022-10-13T01:53:24.557Z,31.00
2022-10-13T01:58:23.699Z,28.20
2022-10-13T02:03:22.852Z,31.30
2022-10-13T02:08:23.026Z,28.50
2022-10-13T02:13:21.176Z,29.50
2022-10-13T02:18:20.318Z,23.30
2022-10-13T02:23:20.506Z,24.90
2022-10-13T02:28:18.647Z,22.70
2022-10-13T02:33:17.777Z,24.40
2022-10-13T02:38:16.917Z,20.70
2022-10-13T02:43:15.296Z,22.30
2022-10-13T02:48:14.654Z,20.10
2022-10-13T02:53:14.838Z,19.50
2022-10-13T02:58:13.956Z,20.50
2022-10-13T03:03:14.300Z,17.40
2022-10-13T03:08:12.425Z,16.60
2022-10-13T03:13:11.616Z,15.80
2022-10-13T03:18:10.740Z,15.50
2022-10-13T03:23:10.095Z,15.50
2022-10-13T03:28:09.213Z,14.80
2022-10-13T03:33:08.566Z,14.10
2022-10-13T03:38:08.778Z,14.90
2022-10-13T03:43:07.980Z,13.50
2022-10-13T03:48:07.204Z,13.40
2022-10-13T03:53:05.415Z,12.60
2022-10-13T03:58:04.573Z,11.80
2022-10-13T04:03:03.737Z,11.00
2022-10-13T04:08:02.922Z,12.70
2022-10-13T04:13:03.130Z,10.40
2022-10-13T04:18:01.309Z,10.10
2022-10-13T04:23:00.491Z,10.60
2022-10-13T04:27:58.632Z,10.00
2022-10-13T04:32:58.826Z,9.70
2022-10-13T04:37:58.054Z,9.40
2022-10-13T04:42:58.207Z,8.70
2022-10-13T04:47:57.530Z,8.50
2022-10-13T04:52:55.818Z,8.90
2022-10-13T04:57:55.120Z,8.70
2022-10-13T05:02:54.432Z,8.40
2022-10-13T05:07:53.764Z,8.40
2022-10-13T05:12:54.885Z,8.20
2022-10-13T05:17:52.198Z,7.40
2022-10-13T05:22:51.516Z,8.30
2022-10-13T05:27:51.856Z,7.40
2022-10-13T05:32:53.728Z,8.10
2022-10-13T05:37:49.311Z,7.50
2022-10-13T05:42:48.618Z,6.90
2022-10-13T05:47:48.954Z,6.90
2022-10-13T05:52:47.101Z,6.70
2022-10-13T05:57:47.472Z,7.10
2022-10-13T06:02:46.614Z,6.20
2022-10-13T06:07:45.896Z,5.40
2022-10-13T06:12:44.211Z,5.30
2022-10-13T06:17:43.527Z,6.10
2022-10-13T06:22:42.864Z,5.80
2022-10-13T06:27:41.990Z,5.70
2022-10-13T06:32:41.277Z,5.90
2022-10-13T06:37:40.603Z,4.90
2022-10-13T06:42:39.921Z,4.80
2022-10-13T06:47:39.223Z,5.60
2022-10-13T06:52:38.574Z,97.60
2022-10-13T06:57:37.690Z,127.80
2022-10-13T07:02:37.034Z,190.60
2022-10-13T07:07:37.273Z,181.60
2022-10-13T07:12:37.402Z,216.20
2022-10-13T07:17:34.545Z,267.00
2022-10-13T07:22:33.877Z,185.30
2022-10-13T07:27:33.143Z,227.80
2022-10-13T07:32:32.447Z,237.00
2022-10-13T07:37:31.728Z,90.70
2022-10-13T07:42:30.997Z,86.50
2022-10-13T07:47:30.299Z,76.20
2022-10-13T07:52:29.583Z,177.50
2022-10-13T07:57:28.907Z,287.00
2022-10-13T08:02:28.230Z,194.90
2022-10-13T08:07:28.525Z,115.80
2022-10-13T08:12:29.637Z,144.60
2022-10-13T08:17:29.175Z,151.00
2022-10-13T08:22:28.198Z,127.10
2022-10-13T08:27:26.668Z,127.70
2022-10-13T08:32:23.691Z,113.30
2022-10-13T08:37:22.024Z,167.50
2022-10-13T08:42:22.549Z,83.90
2022-10-13T08:47:21.362Z,86.00
2022-10-13T08:52:20.983Z,91.20
2022-10-13T08:57:21.224Z,111.30
2022-10-13T09:02:19.105Z,116.50
2022-10-13T09:07:19.685Z,69.50
2022-10-13T09:12:19.985Z,76.90
2022-10-13T09:17:17.039Z,69.00
2022-10-13T09:22:19.319Z,58.50
2022-10-13T09:27:16.253Z,42.20
2022-10-13T09:32:14.622Z,59.00
2022-10-13T09:37:13.765Z,47.40
2022-10-13T09:42:12.862Z,41.30
2022-10-13T09:47:13.182Z,39.00
2022-10-13T09:52:11.502Z,84.30
2022-10-13T09:57:09.833Z,40.30
2022-10-13T10:02:13.369Z,32.90
2022-10-13T10:07:10.370Z,39.40
2022-10-13T10:12:08.668Z,33.70
2022-10-13T10:17:08.005Z,50.50
2022-10-13T10:22:07.298Z,58.30
2022-10-13T10:27:06.699Z,35.70
2022-10-13T10:32:06.790Z,34.10
2022-10-13T10:37:05.101Z,29.50
2022-10-13T10:42:04.417Z,28.80
2022-10-13T10:47:04.765Z,21.50
2022-10-13T10:52:03.902Z,21.20
2022-10-13T10:57:03.004Z,24.10
2022-10-13T11:02:01.315Z,24.30
2022-10-13T11:07:01.666Z,17.20
2022-10-13T11:12:00.796Z,20.20
2022-10-13T11:17:01.127Z,15.20
2022-10-13T11:21:59.425Z,18.30
2022-10-13T11:26:59.771Z,16.00
2022-10-13T11:31:56.882Z,15.00
2022-10-13T11:36:57.231Z,14.60
2022-10-13T11:41:56.556Z,15.10
2022-10-13T11:46:54.885Z,14.90
2022-10-13T11:51:54.215Z,14.30
2022-10-13T11:56:55.543Z,16.90
2022-10-13T12:01:52.885Z,20.20
2022-10-13T12:06:53.001Z,14.90
2022-10-13T12:11:51.314Z,18.90
2022-10-13T12:16:51.653Z,11.00
2022-10-13T12:21:50.785Z,13.50
2022-10-13T12:26:48.921Z,11.20
2022-10-13T12:31:49.267Z,12.50
2022-10-13T12:36:47.439Z,12.30
2022-10-13T12:41:46.548Z,11.30
2022-10-13T12:46:46.861Z,9.70
2022-10-13T12:51:46.170Z,10.20
2022-10-13T12:56:44.480Z,9.10
2022-10-13T13:01:43.795Z,9.30
2022-10-13T13:06:42.927Z,9.80
2022-10-13T13:11:42.274Z,9.10
2022-10-13T13:16:41.450Z,9.30
2022-10-13T13:21:40.639Z,9.40
2022-10-13T13:26:40.755Z,9.50
2022-10-13T13:31:39.093Z,8.80
2022-10-13T13:36:38.280Z,8.50
2022-10-13T13:41:37.433Z,8.90
2022-10-13T13:46:36.558Z,8.70
2022-10-13T13:51:35.893Z,9.00
2022-10-13T13:56:34.030Z,8.10
2022-10-13T14:01:35.270Z,10.50
2022-10-13T14:06:35.392Z,9.60
2022-10-13T14:11:32.738Z,9.50
2022-10-13T14:16:31.891Z,9.80
2022-10-13T14:21:31.070Z,9.60
2022-10-13T14:26:30.225Z,9.90
2022-10-13T14:31:29.338Z,9.90
2022-10-13T14:36:28.719Z,9.70
2022-10-13T14:41:29.860Z,10.30
2022-10-13T14:46:27.150Z,9.90
2022-10-13T14:51:28.527Z,10.60
2022-10-13T14:56:25.641Z,10.70
2022-10-13T15:01:24.964Z,10.90
2022-10-13T15:06:24.303Z,10.40
2022-10-13T15:11:23.612Z,10.30
2022-10-13T15:16:22.944Z,10.70
2022-10-13T15:21:22.291Z,12.20
2022-10-13T15:26:22.582Z,10.60
2022-10-13T15:31:21.891Z,10.30
2022-10-13T15:36:20.189Z,10.30
2022-10-13T15:41:19.467Z,11.20
2022-10-13T15:46:18.773Z,10.90
2022-10-13T15:51:19.071Z,10.30
2022-10-13T15:56:19.466Z,11.90
2022-10-13T16:01:16.654Z,11.40
2022-10-13T16:06:15.870Z,11.80
2022-10-13T16:11:15.039Z,12.70
2022-10-13T16:16:14.195Z,12.30
2022-10-13T16:21:18.041Z,10.40
2022-10-13T16:26:14.543Z,9.90
2022-10-13T16:31:12.887Z,11.20
2022-10-13T16:36:12.154Z,10.70
2022-10-13T16:41:10.467Z,10.50
2022-10-13T16:46:10.782Z,10.20
2022-10-13T16:51:10.080Z,11.40
2022-10-13T16:56:09.431Z,9.50
2022-10-13T17:01:07.610Z,11.90
2022-10-13T17:06:07.750Z,13.70
2022-10-13T17:11:06.342Z,12.40
2022-10-13T17:16:06.549Z,12.30
2022-10-13T17:21:05.814Z,12.00
2022-10-13T17:26:04.110Z,10.80
2022-10-13T17:31:03.351Z,10.50
2022-10-13T17:36:02.328Z,10.80
2022-10-13T17:41:02.449Z,11.40
2022-10-13T17:46:23.930Z,11.20
2022-10-13T17:50:59.953Z,10.90
2022-10-13T17:55:59.445Z,11.20
2022-10-13T18:01:12.478Z,11.90
2022-10-13T18:05:57.561Z,10.90
2022-10-13T18:11:07.560Z,12.70
2022-10-13T18:15:57.042Z,12.60
2022-10-13T18:20:55.449Z,13.30
2022-10-13T18:25:55.413Z,13.20
2022-10-13T18:30:55.964Z,13.40
2022-10-13T18:35:53.157Z,12.40
2022-10-13T18:40:52.260Z,13.50
2022-10-13T18:45:51.559Z,14.20
2022-10-13T18:50:51.763Z,14.40
2022-10-13T18:55:50.970Z,13.90
2022-10-13T19:00:49.309Z,13.70
2022-10-13T19:05:48.573Z,14.20
2022-10-13T19:10:47.632Z,15.50
2022-10-13T19:15:46.887Z,13.70
2022-10-13T19:20:46.941Z,13.80
2022-10-13T19:25:47.537Z,12.80
2022-10-13T19:30:44.569Z,12.60
2022-10-13T19:35:43.922Z,11.80
2022-10-13T19:40:43.204Z,12.00
2022-10-13T19:45:42.542Z,41.20
2022-10-13T19:50:42.671Z,72.20
2022-10-13T19:55:41.034Z,125.40
2022-10-13T20:00:40.973Z,109.40
2022-10-13T20:05:39.240Z,107.30
2022-10-13T20:10:38.206Z,59.60
2022-10-13T20:15:37.428Z,37.00
2022-10-13T20:20:37.585Z,63.60
2022-10-13T20:25:36.179Z,83.10
2022-10-13T20:30:35.098Z,79.10
2022-10-13T20:35:34.443Z,71.30
2022-10-13T20:40:32.582Z,120.50
2022-10-13T20:45:33.904Z,48.60
2022-10-13T20:50:34.256Z,51.20
2022-10-13T20:55:30.360Z,124.10
2022-10-13T21:00:30.763Z,103.20
2022-10-13T21:05:30.931Z,77.60
2022-10-13T21:10:29.265Z,121.50
2022-10-13T21:15:29.562Z,294.10
2022-10-13T21:20:28.850Z,103.40
2022-10-13T21:25:27.143Z,83.50
2022-10-13T21:30:26.440Z,142.60
2022-10-13T21:35:25.723Z,177.00
2022-10-13T21:40:26.043Z,149.00
2022-10-13T21:45:23.317Z,269.70
2022-10-13T21:50:24.587Z,236.10
2022-10-13T21:55:22.859Z,169.00
2022-10-13T22:00:23.141Z,135.80
2022-10-13T22:05:21.371Z,126.80
2022-10-13T22:10:20.560Z,102.10
2022-10-13T22:15:21.732Z,119.50
2022-10-13T22:20:19.900Z,233.50
2022-10-13T22:25:19.057Z,157.70
2022-10-13T22:30:18.231Z,145.40
2022-10-13T22:35:16.399Z,140.20
2022-10-13T22:40:16.588Z,273.00
2022-10-13T22:45:15.783Z,208.50
2022-10-13T22:50:14.960Z,171.50
2022-10-13T22:55:13.180Z,155.50
2022-10-13T23:00:13.346Z,190.70
2022-10-13T23:05:12.502Z,212.80
2022-10-13T23:10:11.677Z,151.20
2022-10-13T23:15:09.852Z,118.40
2022-10-13T23:20:09.053Z,111.70
2022-10-13T23:25:10.271Z,93.10
2022-10-13T23:30:07.440Z,50.80
2022-10-13T23:35:06.671Z,137.60
2022-10-13T23:40:05.919Z,82.50
2022-10-13T23:45:09.168Z,96.70
2022-10-13T23:50:08.333Z,105.70
2022-10-13T23:55:03.560Z,59.90
